Time;durP1;ratioP1;P1;durP2;ratioP2;P2;SDS_P1;SDS_P2;PMS_P1;PMS_P2;Temp;Humidity;BMP_temperature;BMP_pressure;BME280_temperature;BME280_humidity;BME280_pressure;Samples;Min_cycle;Max_cycle;Signal;HPM_P1;HPM_P2
2023/11/06 06:09:29;;;;;;;0.70;0.45;;;;;;;;;;6218065;22;20351;-89
2023/11/06 06:11:58;;;;;;;2.63;1.10;;;;;;;;;;6211491;23;20008;-91
2023/11/06 06:17:42;;;;;;;;;;;;;;;;;;;;;
2023/11/06 06:20:12;;;;;;;7.68;3.13;;;;;;;;;;6215368;23;20084;-92
2023/11/06 06:23:08;;;;;;;2.60;1.42;;;;;;;;;;6213635;23;20020;-92
2023/11/06 06:25:35;;;;;;;6.53;1.88;;;;;;;;;;6210296;23;20469;-91
2023/11/06 06:28:01;;;;;;;1.48;0.50;;;;;;;;;;6209048;23;20039;-90
2023/11/06 06:30:27;;;;;;;1.30;0.50;;;;;;;;;;6210474;23;20017;-91
2023/11/06 06:32:53;;;;;;;1.08;0.73;;;;;;;;;;6211039;23;20017;-91
2023/11/06 06:35:19;;;;;;;1.55;0.43;;;;;;;;;;6187077;23;20027;-90
2023/11/06 06:38:09;;;;;;;3.42;1.25;;;;;;;;;;6211966;23;20009;-91
2023/11/06 06:50:00;;;;;;;0.88;0.50;;;;;;;;;;6217285;23;20020;-91
2023/11/06 06:52:37;;;;;;;1.48;0.70;;;;;;;;;;6224133;23;20035;-90
2023/11/06 06:55:03;;;;;;;0.57;0.35;;;;;;;;;;6213185;23;20004;-88
2023/11/06 06:57:37;;;;;;;2.17;0.77;;;;;;;;;;6211255;23;20032;-89
2023/11/06 07:00:03;;;;;;;3.05;1.23;;;;;;;;;;6212689;23;20008;-90
2023/11/06 07:05:09;;;;;;;0.25;0.13;;;;;;;;;;6186920;23;20021;-90
2023/11/06 07:07:44;;;;;;;0.20;0.10;;;;;;;;;;6190866;23;20017;-88
2023/11/06 07:10:32;;;;;;;2.05;0.80;;;;;;;;;;6192433;23;19997;-90
2023/11/06 07:13:15;;;;;;;2.20;0.75;;;;;;;;;;6181165;23;20021;-89
2023/11/06 07:22:15;;;;;;;0.52;0.40;;;;;;;;;;6090702;23;20159;-88
2023/11/06 07:24:45;;;;;;;3.72;0.45;;;;;;;;;;6066484;23;20022;-87
2023/11/06 07:27:13;;;;;;;2.10;0.70;;;;;;;;;;6066530;23;20030;-87
2023/11/06 07:29:40;;;;;;;0.73;0.20;;;;;;;;;;6143030;23;20021;-87
2023/11/06 07:32:10;;;;;;;0.73;0.50;;;;;;;;;;6184686;23;20001;-87
2023/11/06 07:35:04;;;;;;;0.38;0.20;;;;;;;;;;6183559;23;20020;-87
2023/11/06 07:37:41;;;;;;;0.22;0.20;;;;;;;;;;6189345;23;20372;-85
2023/11/06 07:40:15;;;;;;;0.82;0.55;;;;;;;;;;6216995;23;20420;-86
2023/11/06 07:42:41;;;;;;;2.85;1.15;;;;;;;;;;6216292;23;20012;-87
2023/11/06 07:48:19;;;;;;;2.20;0.82;;;;;;;;;;6203698;23;20014;-88
2023/11/06 07:50:56;;;;;;;1.35;0.90;;;;;;;;;;6214364;23;20012;-88
2023/11/06 07:53:33;;;;;;;2.45;1.08;;;;;;;;;;6215543;23;20397;-88
2023/11/06 07:59:30;;;;;;;;;;;;;;;;;;;;;
2023/11/06 08:01:57;;;;;;;0.77;0.50;;;;;;;;;;6239529;23;20410;-88
2023/11/06 08:04:56;;;;;;;0.43;0.20;;;;;;;;;;6215165;23;20305;-86
2023/11/06 08:14:07;;;;;;;3.20;0.50;;;;;;;;;;6149512;23;20059;-88
2023/11/06 08:16:55;;;;;;;1.60;0.60;;;;;;;;;;6123970;23;20013;-87
2023/11/06 08:19:38;;;;;;;;;;;;;;;;;;;;;
2023/11/06 08:34:04;;;;;;;;;;;;;;;;;;;;;
2023/11/06 08:36:49;;;;;;;1.73;0.55;;;;;;;;;;6242313;23;20087;-87
2023/11/06 08:39:17;;;;;;;0.35;0.17;;;;;;;;;;6240237;23;20004;-85
2023/11/06 08:41:43;;;;;;;1.63;0.55;;;;;;;;;;6238970;23;20007;-85
2023/11/06 08:44:09;;;;;;;0.95;0.35;;;;;;;;;;6215223;23;20011;-85
2023/11/06 08:46:35;;;;;;;0.85;0.13;;;;;;;;;;6215454;23;20424;-85
2023/11/06 08:49:01;;;;;;;0.75;0.25;;;;;;;;;;6217293;23;20523;-85
2023/11/06 08:51:29;;;;;;;1.65;0.47;;;;;;;;;;6214907;23;20012;-85
2023/11/06 08:53:55;;;;;;;0.30;0.30;;;;;;;;;;6242855;23;20015;-85
2023/11/06 08:56:23;;;;;;;1.25;0.52;;;;;;;;;;6214308;23;20091;-85
2023/11/06 08:58:50;;;;;;;0.30;0.20;;;;;;;;;;6215160;23;20336;-85
2023/11/06 09:01:16;;;;;;;0.38;0.22;;;;;;;;;;6241917;23;20039;-84
2023/11/06 09:03:42;;;;;;;0.73;0.57;;;;;;;;;;6241555;23;20008;-85
2023/11/06 09:06:10;;;;;;;0.65;0.32;;;;;;;;;;6214905;23;20036;-85
2023/11/06 09:08:39;;;;;;;0.85;0.22;;;;;;;;;;6216420;23;20016;-86
2023/11/06 09:11:06;;;;;;;0.13;0.13;;;;;;;;;;6214513;23;20024;-86
2023/11/06 09:13:35;;;;;;;0.10;0.10;;;;;;;;;;6215719;23;20573;-85
2023/11/06 09:16:03;;;;;;;0.70;0.30;;;;;;;;;;6241868;23;20091;-85
2023/11/06 09:18:29;;;;;;;2.17;1.25;;;;;;;;;;6214767;23;20012;-86
2023/11/06 09:20:55;;;;;;;1.63;1.15;;;;;;;;;;6215304;23;20008;-86
2023/11/06 09:23:21;;;;;;;3.90;0.52;;;;;;;;;;6215925;23;20020;-86
2023/11/06 09:25:48;;;;;;;5.95;0.60;;;;;;;;;;6215282;23;20012;-87
2023/11/06 09:28:14;;;;;;;1.50;0.55;;;;;;;;;;6218360;23;20055;-87
2023/11/06 09:30:43;;;;;;;1.90;0.60;;;;;;;;;;6217092;23;20020;-86
2023/11/06 09:33:09;;;;;;;1.25;0.63;;;;;;;;;;6215960;23;20039;-86
2023/11/06 09:35:35;;;;;;;5.97;0.95;;;;;;;;;;6242479;23;20008;-86
2023/11/06 09:38:01;;;;;;;1.85;0.90;;;;;;;;;;6216995;23;20004;-86
2023/11/06 09:40:31;;;;;;;1.63;0.50;;;;;;;;;;6217582;23;20019;-87
2023/11/06 09:42:59;;;;;;;3.40;1.38;;;;;;;;;;6213952;23;20408;-87
2023/11/06 09:45:26;;;;;;;1.77;0.70;;;;;;;;;;6215992;23;20066;-87
2023/11/06 09:47:52;;;;;;;1.17;0.65;;;;;;;;;;6215934;23;20008;-86
2023/11/06 09:50:20;;;;;;;2.83;0.88;;;;;;;;;;6244130;23;20007;-87
2023/11/06 09:52:47;;;;;;;0.43;0.30;;;;;;;;;;6216599;23;20031;-87
2023/11/06 09:55:19;;;;;;;0.80;0.55;;;;;;;;;;6215354;23;20035;-87
2023/11/06 09:57:46;;;;;;;1.58;0.80;;;;;;;;;;6215043;23;20023;-88
2023/11/06 10:00:17;;;;;;;2.15;0.68;;;;;;;;;;6215095;23;20015;-88
2023/11/06 10:02:43;;;;;;;5.63;0.95;;;;;;;;;;6240591;23;20016;-88
2023/11/06 10:05:24;;;;;;;2.65;0.65;;;;;;;;;;6215624;23;20043;-85
2023/11/06 10:07:51;;;;;;;0.60;0.32;;;;;;;;;;6216889;23;20493;-86
2023/11/06 10:10:22;;;;;;;14.52;0.57;;;;;;;;;;6217266;23;20040;-86
2023/11/06 10:13:09;;;;;;;1.90;0.57;;;;;;;;;;6216969;23;20340;-88
2023/11/06 10:15:36;;;;;;;1.85;0.70;;;;;;;;;;6217525;23;20008;-88
2023/11/06 10:18:13;;;;;;;4.30;0.75;;;;;;;;;;6217258;23;20012;-89
2023/11/06 10:20:40;;;;;;;2.70;0.70;;;;;;;;;;6217530;23;20031;-85
2023/11/06 10:23:07;;;;;;;1.98;1.05;;;;;;;;;;6215982;23;20023;-86
2023/11/06 10:25:33;;;;;;;3.35;0.95;;;;;;;;;;6242948;23;20416;-85
2023/11/06 10:27:59;;;;;;;1.77;1.00;;;;;;;;;;6214976;23;20035;-86
2023/11/06 10:30:29;;;;;;;0.90;0.45;;;;;;;;;;6216786;23;20005;-88
2023/11/06 10:33:12;;;;;;;0.63;0.05;;;;;;;;;;6215058;23;20023;-88
2023/11/06 10:35:39;;;;;;;0.10;0.08;;;;;;;;;;6214871;23;20008;-89
2023/11/06 10:38:05;;;;;;;0.60;0.35;;;;;;;;;;6214203;23;20412;-89
2023/11/06 10:40:32;;;;;;;0.63;0.28;;;;;;;;;;6216339;23;20004;-90
2023/11/06 10:43:01;;;;;;;1.75;0.63;;;;;;;;;;6215997;23;20091;-90
2023/11/06 10:45:29;;;;;;;0.65;0.25;;;;;;;;;;6215873;23;20020;-90
2023/11/06 10:48:14;;;;;;;0.30;0.22;;;;;;;;;;6218384;23;20012;-90
2023/11/06 10:50:45;;;;;;;1.08;0.63;;;;;;;;;;6232154;23;20039;-90
2023/11/06 10:53:12;;;;;;;1.03;0.77;;;;;;;;;;6218990;23;20424;-90
2023/11/06 10:55:43;;;;;;;0.57;0.43;;;;;;;;;;6215086;23;20419;-90
2023/11/06 10:58:17;;;;;;;6.95;1.88;;;;;;;;;;6216389;23;20008;-90
2023/11/06 11:00:57;;;;;;;2.50;1.40;;;;;;;;;;6216290;23;20012;-90
2023/11/06 11:03:29;;;;;;;0.30;0.25;;;;;;;;;;6215148;23;20082;-90
2023/11/06 11:06:04;;;;;;;2.90;0.90;;;;;;;;;;6215700;23;20106;-89
2023/11/06 11:08:38;;;;;;;1.42;0.50;;;;;;;;;;6215882;23;20016;-90
2023/11/06 11:11:10;;;;;;;1.52;0.30;;;;;;;;;;6214843;23;20014;-89
2023/11/06 11:20:05;;;;;;;4.10;0.28;;;;;;;;;;6242204;23;20023;-88
2023/11/06 11:22:33;;;;;;;0.00;0.00;;;;;;;;;;6214765;23;20016;-88
2023/11/06 11:25:00;;;;;;;0.35;0.30;;;;;;;;;;6214262;23;20466;-88
2023/11/06 11:27:47;;;;;;;0.77;0.28;;;;;;;;;;6213570;23;20062;-88
2023/11/06 11:30:14;;;;;;;0.85;0.32;;;;;;;;;;6214187;23;20320;-88
2023/11/06 11:32:51;;;;;;;9.93;0.60;;;;;;;;;;6212932;23;20016;-91
2023/11/06 11:35:20;;;;;;;0.30;0.13;;;;;;;;;;6216312;23;20013;-91
2023/11/06 11:38:28;;;;;;;0.60;0.40;;;;;;;;;;6215666;23;20020;-88
2023/11/06 11:40:53;;;;;;;0.63;0.38;;;;;;;;;;6245723;23;20058;-90
2023/11/06 11:43:26;;;;;;;0.65;0.28;;;;;;;;;;6218285;23;20024;-89
2023/11/06 11:46:09;;;;;;;8.90;0.77;;;;;;;;;;6216842;23;20016;-89
2023/11/06 11:49:05;;;;;;;1.10;0.50;;;;;;;;;;6216754;23;20020;-87
2023/11/06 11:54:46;;;;;;;0.68;0.20;;;;;;;;;;6155748;23;20044;-90
2023/11/06 11:57:21;;;;;;;0.43;0.20;;;;;;;;;;6254753;23;20032;-89
2023/11/06 11:59:50;;;;;;;1.08;0.47;;;;;;;;;;6225727;23;20000;-90
2023/11/06 12:02:30;;;;;;;3.78;0.60;;;;;;;;;;6218110;23;20099;-91
2023/11/06 12:05:19;;;;;;;1.23;0.55;;;;;;;;;;6180888;23;20040;-90
2023/11/06 12:20:05;;;;;;;0.32;0.20;;;;;;;;;;6156489;23;20053;-89
2023/11/06 12:22:36;;;;;;;1.10;0.63;;;;;;;;;;6126622;23;20708;-91
2023/11/06 12:25:30;;;;;;;0.55;0.30;;;;;;;;;;6131179;23;20064;-90
2023/11/06 12:28:03;;;;;;;7.32;0.45;;;;;;;;;;6096576;23;20335;-87
2023/11/06 12:30:29;;;;;;;0.43;0.10;;;;;;;;;;6097312;23;20046;-89
2023/11/06 12:33:06;;;;;;;2.38;0.10;;;;;;;;;;6072304;23;20014;-90
2023/11/06 12:35:37;;;;;;;0.77;0.40;;;;;;;;;;6095782;23;20074;-85
2023/11/06 12:38:03;;;;;;;1.10;0.30;;;;;;;;;;6095410;23;20006;-89
2023/11/06 12:40:29;;;;;;;1.13;0.22;;;;;;;;;;6072963;23;20324;-89
2023/11/06 12:42:56;;;;;;;2.83;0.73;;;;;;;;;;6096592;23;20089;-88
2023/11/06 12:45:25;;;;;;;5.57;1.08;;;;;;;;;;6066939;23;20014;-85
2023/11/06 12:47:54;;;;;;;0.63;0.40;;;;;;;;;;6067884;23;20426;-85
2023/11/06 12:50:21;;;;;;;0.50;0.20;;;;;;;;;;6068848;23;20093;-86
2023/11/06 12:52:48;;;;;;;0.15;0.13;;;;;;;;;;6127737;23;20428;-85
2023/11/06 12:55:15;;;;;;;0.98;0.30;;;;;;;;;;6125705;23;20453;-85
2023/11/06 12:57:41;;;;;;;0.35;0.20;;;;;;;;;;6125824;23;20006;-85
2023/11/06 13:00:22;;;;;;;8.25;0.30;;;;;;;;;;6150000;23;20002;-85
2023/11/06 13:02:52;;;;;;;0.67;0.33;;;;;;;;;;6151878;23;20366;-83
2023/11/06 13:05:20;;;;;;;0.80;0.30;;;;;;;;;;6126110;23;20040;-84
2023/11/06 13:07:52;;;;;;;0.20;0.15;;;;;;;;;;6125475;23;20768;-84
2023/11/06 13:10:19;;;;;;;0.88;0.50;;;;;;;;;;6125961;23;20010;-84
2023/11/06 13:12:46;;;;;;;2.35;0.55;;;;;;;;;;6125821;23;20029;-83
2023/11/06 13:15:14;;;;;;;0.22;0.10;;;;;;;;;;6153041;23;20016;-84
2023/11/06 13:17:41;;;;;;;0.73;0.38;;;;;;;;;;6152449;23;20084;-85
2023/11/06 13:20:28;;;;;;;0.57;0.38;;;;;;;;;;6152734;23;20065;-85
2023/11/06 13:22:57;;;;;;;1.45;0.40;;;;;;;;;;6126287;23;20013;-85
2023/11/06 13:25:24;;;;;;;0.85;0.25;;;;;;;;;;6126833;23;20013;-84
2023/11/06 13:27:50;;;;;;;0.90;0.30;;;;;;;;;;6127674;23;20561;-85
2023/11/06 13:30:18;;;;;;;3.17;1.00;;;;;;;;;;6128187;23;20072;-84
2023/11/06 13:32:44;;;;;;;0.15;0.10;;;;;;;;;;6127630;23;20076;-84
2023/11/06 13:35:13;;;;;;;0.32;0.17;;;;;;;;;;6153074;23;20041;-84
2023/11/06 13:37:40;;;;;;;1.45;0.22;;;;;;;;;;6126773;23;20044;-85
2023/11/06 13:40:13;;;;;;;0.55;0.30;;;;;;;;;;6125779;23;20021;-84
2023/11/06 13:42:38;;;;;;;;;;;;;;;;;;6124722;23;20010;-84
2023/11/06 13:45:06;;;;;;;2.95;0.30;;;;;;;;;;6096848;23;19924;-84
2023/11/06 13:47:32;;;;;;;0.17;0.10;;;;;;;;;;6095590;23;20065;-84
2023/11/06 13:50:03;;;;;;;0.10;0.08;;;;;;;;;;6096866;23;20100;-84
2023/11/06 13:52:42;;;;;;;0.10;0.10;;;;;;;;;;6095972;23;20029;-84
2023/11/06 13:55:14;;;;;;;0.03;0.00;;;;;;;;;;6096154;23;20010;-84
2023/11/06 13:57:41;;;;;;;0.00;0.00;;;;;;;;;;6095429;23;20014;-85
2023/11/06 14:00:32;;;;;;;0.00;0.00;;;;;;;;;;6096514;23;20092;-84
2023/11/06 14:02:54;;;;;;;0.10;0.00;;;;;;;;;;6120730;23;20018;-86
2023/11/06 14:05:20;;;;;;;0.00;0.00;;;;;;;;;;6094502;23;20018;-85
2023/11/06 14:07:46;;;;;;;0.10;0.00;;;;;;;;;;6096799;23;20010;-86
2023/11/06 14:10:27;;;;;;;0.20;0.00;;;;;;;;;;6100668;23;20017;-86
2023/11/06 14:12:53;;;;;;;0.17;0.03;;;;;;;;;;6119419;23;20112;-86
2023/11/06 14:15:19;;;;;;;0.10;0.05;;;;;;;;;;6129669;23;20009;-89
2023/11/06 14:17:46;;;;;;;0.00;0.00;;;;;;;;;;6129550;23;20346;-92
2023/11/06 14:20:15;;;;;;;0.00;0.00;;;;;;;;;;6128693;23;20021;-90
2023/11/06 14:22:44;;;;;;;0.00;0.00;;;;;;;;;;6128332;23;20682;-87
2023/11/06 14:25:12;;;;;;;0.10;0.00;;;;;;;;;;6129137;23;20047;-91
2023/11/06 14:27:38;;;;;;;0.22;0.03;;;;;;;;;;6125650;23;20014;-92
2023/11/06 14:30:05;;;;;;;1.83;0.20;;;;;;;;;;6126753;23;20119;-88
2023/11/06 14:32:32;;;;;;;0.10;0.00;;;;;;;;;;6127332;23;20329;-86
2023/11/06 14:34:59;;;;;;;0.20;0.00;;;;;;;;;;6127895;23;20455;-86
2023/11/06 14:37:25;;;;;;;0.20;0.00;;;;;;;;;;6127006;23;20006;-86
2023/11/06 14:39:51;;;;;;;0.52;0.28;;;;;;;;;;6127622;23;20017;-89
2023/11/06 14:42:18;;;;;;;0.00;0.00;;;;;;;;;;6130490;23;20084;-89
2023/11/06 14:44:45;;;;;;;0.15;0.10;;;;;;;;;;6130235;23;20013;-82
2023/11/06 14:47:13;;;;;;;0.00;0.00;;;;;;;;;;6161393;23;20028;-89
2023/11/06 14:49:40;;;;;;;0.00;0.00;;;;;;;;;;6191912;23;20023;-86
2023/11/06 14:52:07;;;;;;;0.40;0.22;;;;;;;;;;6219584;23;20076;-86
2023/11/06 14:54:33;;;;;;;0.00;0.00;;;;;;;;;;6220469;23;20004;-88
2023/11/06 14:57:00;;;;;;;0.20;0.10;;;;;;;;;;6217745;23;20016;-85
2023/11/06 14:59:25;;;;;;;0.00;0.00;;;;;;;;;;6219592;23;20015;-84
2023/11/06 15:01:51;;;;;;;0.43;0.22;;;;;;;;;;6218977;23;20016;-85
2023/11/06 15:04:19;;;;;;;0.22;0.10;;;;;;;;;;6216507;23;20012;-86
2023/11/06 15:06:49;;;;;;;0.00;0.00;;;;;;;;;;6217491;23;20016;-89
2023/11/06 15:09:15;;;;;;;0.10;0.10;;;;;;;;;;6220313;23;20194;-90
2023/11/06 15:11:41;;;;;;;0.10;0.05;;;;;;;;;;6218736;23;20023;-87
2023/11/06 15:14:09;;;;;;;0.30;0.05;;;;;;;;;;6217030;23;20350;-86
2023/11/06 15:16:35;;;;;;;0.00;0.00;;;;;;;;;;6217003;23;20367;-87
2023/11/06 15:19:01;;;;;;;0.20;0.10;;;;;;;;;;6216795;23;20012;-88
2023/11/06 15:21:27;;;;;;;1.25;0.28;;;;;;;;;;6217023;23;20050;-88
2023/11/06 15:23:54;;;;;;;1.20;0.38;;;;;;;;;;6215957;23;20008;-87
2023/11/06 15:26:20;;;;;;;0.00;0.00;;;;;;;;;;6216696;23;20054;-87
2023/11/06 15:28:46;;;;;;;0.00;0.00;;;;;;;;;;6216210;23;20008;-87
2023/11/06 15:31:12;;;;;;;0.10;0.03;;;;;;;;;;6217116;23;20404;-87
2023/11/06 15:33:39;;;;;;;0.35;0.00;;;;;;;;;;6219682;23;20015;-88
2023/11/06 15:36:06;;;;;;;0.32;0.32;;;;;;;;;;6217438;23;20008;-88
2023/11/06 15:38:33;;;;;;;0.65;0.35;;;;;;;;;;6216723;23;20012;-84
2023/11/06 15:40:59;;;;;;;1.75;0.45;;;;;;;;;;6246185;23;20047;-83
2023/11/06 15:43:26;;;;;;;0.30;0.10;;;;;;;;;;6217980;23;20012;-86
2023/11/06 15:45:52;;;;;;;0.63;0.40;;;;;;;;;;6217995;23;20366;-87
2023/11/06 15:48:18;;;;;;;1.77;0.38;;;;;;;;;;6220652;23;20020;-85
2023/11/06 15:50:44;;;;;;;0.10;0.10;;;;;;;;;;6221358;23;20012;-85
2023/11/06 15:53:11;;;;;;;0.88;0.43;;;;;;;;;;6220659;23;20328;-85
2023/11/06 15:55:43;;;;;;;0.10;0.10;;;;;;;;;;6221052;23;20015;-85
2023/11/06 15:58:10;;;;;;;0.68;0.38;;;;;;;;;;6247705;23;20000;-85
2023/11/06 16:00:39;;;;;;;0.40;0.05;;;;;;;;;;6220941;23;20016;-85
2023/11/06 16:03:05;;;;;;;0.20;0.10;;;;;;;;;;6220534;23;20403;-85
2023/11/06 16:05:31;;;;;;;0.30;0.30;;;;;;;;;;6220874;23;20014;-85
2023/11/06 16:07:58;;;;;;;0.30;0.20;;;;;;;;;;6220556;23;20032;-85
2023/11/06 16:10:25;;;;;;;0.28;0.20;;;;;;;;;;6220288;23;20099;-85
2023/11/06 16:12:52;;;;;;;0.32;0.28;;;;;;;;;;6220601;23;20004;-85
2023/11/06 16:15:19;;;;;;;0.50;0.10;;;;;;;;;;6220537;23;20079;-85
2023/11/06 16:17:45;;;;;;;0.65;0.38;;;;;;;;;;6221068;23;20046;-85
2023/11/06 16:20:12;;;;;;;0.77;0.30;;;;;;;;;;6220643;23;20005;-85
2023/11/06 16:22:38;;;;;;;0.85;0.40;;;;;;;;;;6221156;23;20471;-85
2023/11/06 16:25:04;;;;;;;2.00;0.50;;;;;;;;;;6220872;23;20043;-85
2023/11/06 16:27:32;;;;;;;0.28;0.20;;;;;;;;;;6221121;23;20066;-85
2023/11/06 16:29:58;;;;;;;0.70;0.40;;;;;;;;;;6220880;23;20050;-85
2023/11/06 16:32:25;;;;;;;0.85;0.47;;;;;;;;;;6221113;23;20016;-85
2023/11/06 16:34:51;;;;;;;0.10;0.05;;;;;;;;;;6220861;23;20087;-85
2023/11/06 16:37:17;;;;;;;0.85;0.20;;;;;;;;;;6221131;23;20015;-85
2023/11/06 16:39:45;;;;;;;0.70;0.38;;;;;;;;;;6220810;23;20004;-85
2023/11/06 16:42:12;;;;;;;1.17;0.10;;;;;;;;;;6221091;23;20016;-85
2023/11/06 16:44:39;;;;;;;0.03;0.00;;;;;;;;;;6220727;23;20050;-86
2023/11/06 16:47:06;;;;;;;0.10;0.10;;;;;;;;;;6218454;23;20039;-88
2023/11/06 16:49:32;;;;;;;0.10;0.00;;;;;;;;;;6219593;23;20004;-85
2023/11/06 16:51:58;;;;;;;0.43;0.10;;;;;;;;;;6218390;23;20455;-86
2023/11/06 16:54:24;;;;;;;0.50;0.00;;;;;;;;;;6217475;23;20000;-86
2023/11/06 16:56:51;;;;;;;0.38;0.10;;;;;;;;;;6218453;23;20012;-85
2023/11/06 16:59:17;;;;;;;1.85;0.80;;;;;;;;;;6218868;23;20011;-85
2023/11/06 17:01:43;;;;;;;0.93;0.60;;;;;;;;;;6216846;23;20054;-85
2023/11/06 17:04:11;;;;;;;1.77;0.73;;;;;;;;;;6215549;23;20103;-85
2023/11/06 17:06:38;;;;;;;1.98;0.80;;;;;;;;;;6240370;23;20416;-85
2023/11/06 17:09:03;;;;;;;1.35;0.75;;;;;;;;;;6216393;23;20018;-85
2023/11/06 17:11:30;;;;;;;2.05;1.10;;;;;;;;;;6217723;23;20442;-84
2023/11/06 17:13:56;;;;;;;1.77;0.77;;;;;;;;;;6218561;23;20309;-86
2023/11/06 17:16:22;;;;;;;3.15;1.42;;;;;;;;;;6218330;23;20016;-88
2023/11/06 17:18:52;;;;;;;3.17;0.80;;;;;;;;;;6216773;23;20367;-89
2023/11/06 17:21:26;;;;;;;1.52;0.90;;;;;;;;;;6217990;23;20039;-87
2023/11/06 17:23:52;;;;;;;3.90;1.35;;;;;;;;;;6220794;23;20016;-88
2023/11/06 17:26:18;;;;;;;1.85;1.02;;;;;;;;;;6219857;23;20050;-87
2023/11/06 17:28:44;;;;;;;2.67;1.10;;;;;;;;;;6219240;23;20054;-87
2023/11/06 17:31:15;;;;;;;5.72;2.75;;;;;;;;;;6218552;23;20053;-88
2023/11/06 17:36:34;;;;;;;3.97;1.30;;;;;;;;;;6242641;22;20043;-88
2023/11/06 17:39:00;;;;;;;3.20;1.55;;;;;;;;;;6218621;23;20074;-87
2023/11/06 17:41:26;;;;;;;3.17;1.42;;;;;;;;;;6219123;23;20028;-86
2023/11/06 17:44:05;;;;;;;;;;;;;;;;;;;;;
2023/11/06 17:46:34;;;;;;;0.57;0.32;;;;;;;;;;6246421;23;20412;-87
2023/11/06 17:49:00;;;;;;;5.00;0.65;;;;;;;;;;6218968;23;20020;-86
2023/11/06 17:51:26;;;;;;;1.23;0.70;;;;;;;;;;6216269;23;20008;-86
2023/11/06 17:53:55;;;;;;;0.30;0.28;;;;;;;;;;6215726;23;20016;-86
2023/11/06 17:56:22;;;;;;;3.88;1.42;;;;;;;;;;6219666;23;20008;-84
2023/11/06 17:58:51;;;;;;;4.88;2.05;;;;;;;;;;6245385;23;20008;-85
2023/11/06 18:01:19;;;;;;;1.75;1.15;;;;;;;;;;6218438;23;20000;-83
2023/11/06 18:03:45;;;;;;;1.65;0.50;;;;;;;;;;6218262;23;20474;-83
2023/11/06 18:06:12;;;;;;;0.77;0.57;;;;;;;;;;6219132;23;20083;-84
2023/11/06 18:08:38;;;;;;;1.50;0.50;;;;;;;;;;6218367;23;20008;-84
2023/11/06 18:11:04;;;;;;;1.27;0.38;;;;;;;;;;6217239;23;20106;-85
2023/11/06 18:13:30;;;;;;;2.47;0.68;;;;;;;;;;6218209;23;20019;-84
2023/11/06 18:16:04;;;;;;;2.42;0.93;;;;;;;;;;6218617;23;20012;-85
2023/11/06 18:18:31;;;;;;;1.02;0.52;;;;;;;;;;6217597;23;20004;-85
2023/11/06 18:20:57;;;;;;;0.98;0.55;;;;;;;;;;6218669;23;20015;-84
2023/11/06 18:23:23;;;;;;;1.55;0.45;;;;;;;;;;6245347;23;20478;-83
2023/11/06 18:25:50;;;;;;;0.63;0.38;;;;;;;;;;6245392;23;20000;-83
2023/11/06 18:28:16;;;;;;;2.22;1.10;;;;;;;;;;6219148;23;20047;-84
2023/11/06 18:30:42;;;;;;;1.60;0.80;;;;;;;;;;6219587;23;20411;-84
2023/11/06 18:33:08;;;;;;;3.50;0.90;;;;;;;;;;6218908;23;20008;-84
2023/11/06 18:35:34;;;;;;;1.65;0.40;;;;;;;;;;6219633;23;20017;-84
2023/11/06 18:38:01;;;;;;;2.53;1.15;;;;;;;;;;6218922;23;20016;-83
2023/11/06 18:40:27;;;;;;;0.85;0.40;;;;;;;;;;6245912;23;20004;-85
2023/11/06 18:42:53;;;;;;;0.77;0.38;;;;;;;;;;6219681;23;20034;-85
2023/11/06 18:45:22;;;;;;;0.50;0.47;;;;;;;;;;6221064;23;20016;-84
2023/11/06 18:47:48;;;;;;;1.10;0.73;;;;;;;;;;6221325;23;20050;-84
2023/11/06 18:50:14;;;;;;;11.18;2.33;;;;;;;;;;6220747;23;20027;-85
2023/11/06 18:52:41;;;;;;;0.80;0.43;;;;;;;;;;6220121;23;20095;-87
2023/11/06 18:55:08;;;;;;;5.32;2.20;;;;;;;;;;6247436;23;20012;-85
2023/11/06 18:57:37;;;;;;;3.25;0.98;;;;;;;;;;6221270;23;20693;-85
2023/11/06 19:00:03;;;;;;;1.10;0.68;;;;;;;;;;6246633;23;20186;-86
2023/11/06 19:02:29;;;;;;;4.00;1.00;;;;;;;;;;6216392;23;20016;-88
2023/11/06 19:04:55;;;;;;;6.13;1.42;;;;;;;;;;6216464;23;20008;-87
2023/11/06 19:07:22;;;;;;;2.58;1.33;;;;;;;;;;6217652;23;20015;-85
2023/11/06 19:09:52;;;;;;;1.30;0.70;;;;;;;;;;6216837;23;20012;-84
2023/11/06 19:12:18;;;;;;;1.85;0.90;;;;;;;;;;6217562;23;20012;-84
2023/11/06 19:14:44;;;;;;;3.58;1.35;;;;;;;;;;6217861;23;20062;-85
2023/11/06 19:17:11;;;;;;;2.00;0.82;;;;;;;;;;6218447;23;20074;-85
2023/11/06 19:19:37;;;;;;;1.55;0.77;;;;;;;;;;6220427;23;20531;-84
2023/11/06 19:22:05;;;;;;;4.13;1.67;;;;;;;;;;6218005;23;20016;-84
2023/11/06 19:24:31;;;;;;;3.38;1.70;;;;;;;;;;6218309;23;20359;-83
2023/11/06 19:26:57;;;;;;;2.20;0.90;;;;;;;;;;6217136;23;20008;-85
2023/11/06 19:29:35;;;;;;;5.43;1.85;;;;;;;;;;6219188;23;20012;-84
2023/11/06 19:32:01;;;;;;;3.22;1.48;;;;;;;;;;6216715;23;20016;-84
2023/11/06 19:34:28;;;;;;;4.22;1.13;;;;;;;;;;6242840;23;20074;-84
2023/11/06 19:36:56;;;;;;;0.90;0.40;;;;;;;;;;6211224;23;20022;-83
2023/11/06 19:39:22;;;;;;;1.00;0.35;;;;;;;;;;6210755;23;20011;-84
2023/11/06 19:41:53;;;;;;;2.92;0.68;;;;;;;;;;6211608;23;20091;-84
2023/11/06 19:44:19;;;;;;;3.20;1.67;;;;;;;;;;6211502;23;20451;-83
2023/11/06 19:46:45;;;;;;;3.33;1.08;;;;;;;;;;6211122;23;20008;-84
2023/11/06 19:49:11;;;;;;;1.70;0.68;;;;;;;;;;6210995;23;20019;-83
2023/11/06 19:51:43;;;;;;;1.38;0.60;;;;;;;;;;6209799;23;20100;-84
2023/11/06 19:54:12;;;;;;;2.05;0.55;;;;;;;;;;6210662;23;20012;-84
2023/11/06 19:56:51;;;;;;;1.00;0.60;;;;;;;;;;6212489;23;20126;-84
2023/11/06 19:59:30;;;;;;;3.67;2.10;;;;;;;;;;6211921;23;20443;-84
2023/11/06 20:01:58;;;;;;;2.42;1.23;;;;;;;;;;6210955;23;20008;-84
2023/11/06 20:04:31;;;;;;;9.55;2.95;;;;;;;;;;6210833;23;20013;-84
2023/11/06 20:07:00;;;;;;;2.65;1.30;;;;;;;;;;6210871;23;20020;-84
2023/11/06 20:12:20;;;;;;;2.97;1.67;;;;;;;;;;6181876;23;20100;-84
2023/11/06 20:14:55;;;;;;;1.35;0.73;;;;;;;;;;6208911;23;20017;-83
2023/11/06 20:17:23;;;;;;;1.10;0.63;;;;;;;;;;6208867;23;20449;-84
2023/11/06 20:19:53;;;;;;;1.80;0.57;;;;;;;;;;6209161;23;20036;-84
2023/11/06 20:22:24;;;;;;;2.10;0.43;;;;;;;;;;6207405;23;20024;-84
2023/11/06 20:24:55;;;;;;;0.93;0.40;;;;;;;;;;6208598;23;20020;-84
2023/11/06 20:27:24;;;;;;;2.38;0.80;;;;;;;;;;6209569;23;20051;-83
2023/11/06 20:30:06;;;;;;;1.75;1.10;;;;;;;;;;6211048;23;20055;-83
2023/11/06 20:32:32;;;;;;;2.30;1.35;;;;;;;;;;6209668;23;20071;-84
2023/11/06 20:35:01;;;;;;;4.07;2.25;;;;;;;;;;6208104;23;20096;-84
2023/11/06 20:37:32;;;;;;;5.18;2.53;;;;;;;;;;6205788;23;20028;-84
2023/11/06 20:40:03;;;;;;;3.47;1.80;;;;;;;;;;6218517;23;20012;-84
2023/11/06 20:42:39;;;;;;;8.27;2.30;;;;;;;;;;6214820;23;20012;-84
2023/11/06 20:45:06;;;;;;;5.15;1.55;;;;;;;;;;6215871;23;20023;-84
2023/11/06 20:47:40;;;;;;;3.72;1.35;;;;;;;;;;6215509;23;20019;-84
2023/11/06 20:50:13;;;;;;;3.15;0.98;;;;;;;;;;6242323;23;20004;-84
2023/11/06 20:52:47;;;;;;;2.50;0.95;;;;;;;;;;6215096;23;20016;-84
2023/11/06 20:55:15;;;;;;;3.88;1.30;;;;;;;;;;6243112;23;20008;-84
2023/11/06 20:58:00;;;;;;;2.50;1.02;;;;;;;;;;6215584;23;20424;-84
2023/11/06 21:00:29;;;;;;;4.28;1.23;;;;;;;;;;6215426;23;20011;-84
2023/11/06 21:02:57;;;;;;;4.20;1.70;;;;;;;;;;6215447;23;20608;-84
2023/11/06 21:05:24;;;;;;;9.00;2.53;;;;;;;;;;6241706;23;20012;-84
2023/11/06 21:07:56;;;;;;;3.67;1.90;;;;;;;;;;6214914;23;20019;-84
2023/11/06 21:10:25;;;;;;;3.97;1.60;;;;;;;;;;6242769;23;20007;-84
2023/11/06 21:12:51;;;;;;;4.07;2.28;;;;;;;;;;6242409;23;20050;-84
2023/11/06 21:15:33;;;;;;;5.85;1.63;;;;;;;;;;6215653;23;20038;-84
2023/11/06 21:18:09;;;;;;;1.70;1.20;;;;;;;;;;6215014;23;20059;-84
2023/11/06 21:20:35;;;;;;;2.80;1.20;;;;;;;;;;6215028;23;20019;-83
2023/11/06 21:23:01;;;;;;;2.90;0.90;;;;;;;;;;6215552;23;20035;-84
2023/11/06 21:25:27;;;;;;;2.35;1.02;;;;;;;;;;6215691;23;20432;-83
2023/11/06 21:27:54;;;;;;;1.40;0.75;;;;;;;;;;6215138;23;20042;-84
2023/11/06 21:30:23;;;;;;;1.58;0.85;;;;;;;;;;6215873;23;20008;-84
2023/11/06 21:32:54;;;;;;;2.60;1.05;;;;;;;;;;6214819;23;20016;-84
2023/11/06 21:35:31;;;;;;;1.90;0.93;;;;;;;;;;6215658;23;20040;-84
2023/11/06 21:38:11;;;;;;;5.10;1.73;;;;;;;;;;6215416;23;20016;-84
2023/11/06 21:40:42;;;;;;;2.88;1.33;;;;;;;;;;6209830;23;20440;-84
2023/11/06 21:43:10;;;;;;;3.93;1.33;;;;;;;;;;6209654;23;20012;-84
2023/11/06 21:45:42;;;;;;;2.00;0.73;;;;;;;;;;6209700;23;20059;-84
2023/11/06 21:48:33;;;;;;;6.32;1.50;;;;;;;;;;6210023;23;20021;-84
2023/11/06 21:51:02;;;;;;;2.33;1.20;;;;;;;;;;6209365;23;20009;-83
2023/11/06 21:53:34;;;;;;;5.40;1.23;;;;;;;;;;6209680;23;20012;-83
2023/11/06 21:56:00;;;;;;;2.65;1.23;;;;;;;;;;6210075;23;20012;-83
2023/11/06 21:58:26;;;;;;;0.60;0.40;;;;;;;;;;6209568;23;20012;-84
2023/11/06 22:01:00;;;;;;;1.55;0.82;;;;;;;;;;6211295;23;20000;-84
2023/11/06 22:03:26;;;;;;;2.70;0.80;;;;;;;;;;6209716;23;20030;-84
2023/11/06 22:05:55;;;;;;;2.70;0.77;;;;;;;;;;6209085;23;20092;-84
2023/11/06 22:08:24;;;;;;;1.05;0.47;;;;;;;;;;6210073;23;20035;-84
2023/11/06 22:10:50;;;;;;;0.28;0.20;;;;;;;;;;6209160;23;20471;-84
2023/11/06 22:13:16;;;;;;;1.55;0.75;;;;;;;;;;6211768;23;20027;-84
2023/11/06 22:15:44;;;;;;;2.88;0.75;;;;;;;;;;6209298;23;20008;-84
2023/11/06 22:18:28;;;;;;;1.65;1.27;;;;;;;;;;6209663;23;20487;-84
2023/11/06 22:20:57;;;;;;;4.22;1.63;;;;;;;;;;6209227;23;20502;-84
2023/11/06 22:23:31;;;;;;;3.60;1.27;;;;;;;;;;6209956;23;20036;-84
2023/11/06 22:26:00;;;;;;;1.77;1.02;;;;;;;;;;6209843;23;20036;-83